createdAt,value
2022-12-05T00:00:46.439Z,6.88
2022-12-05T00:03:52.612Z,6.55
2022-12-05T00:06:58.437Z,6.97
2022-12-05T00:10:06.617Z,6.70
2022-12-05T00:13:12.430Z,6.82
2022-12-05T00:16:18.472Z,6.55
2022-12-05T00:19:24.241Z,7.15
2022-12-05T00:22:29.945Z,6.22
2022-12-05T00:25:38.982Z,5.90
2022-12-05T00:28:44.923Z,6.85
2022-12-05T00:31:50.488Z,7.40
2022-12-05T00:34:55.842Z,7.20
2022-12-05T00:38:01.429Z,6.47
2022-12-05T00:41:10.272Z,6.90
2022-12-05T00:44:17.285Z,6.60
2022-12-05T00:47:22.349Z,6.75
2022-12-05T00:50:27.568Z,6.47
2022-12-05T00:53:32.956Z,7.60
2022-12-05T00:56:41.056Z,6.47
2022-12-05T00:59:46.296Z,6.60
2022-12-05T01:02:51.833Z,8.20
2022-12-05T01:05:56.975Z,7.15
2022-12-05T01:09:02.515Z,7.07
2022-12-05T01:12:10.648Z,7.35
2022-12-05T01:15:16.062Z,7.63
2022-12-05T01:18:21.945Z,7.07
2022-12-05T01:21:27.405Z,7.57
2022-12-05T01:24:33.228Z,6.93
2022-12-05T01:27:41.138Z,7.20
2022-12-05T01:30:47.821Z,7.32
2022-12-05T01:33:53.351Z,6.55
2022-12-05T01:36:59.082Z,6.60
2022-12-05T01:40:04.809Z,6.28
2022-12-05T01:43:13.980Z,7.18
2022-12-05T01:46:19.155Z,6.53
2022-12-05T01:49:26.642Z,6.10
2022-12-05T01:52:33.416Z,6.28
2022-12-05T01:55:39.143Z,5.90
2022-12-05T01:58:48.172Z,7.35
2022-12-05T02:01:54.217Z,5.85
2022-12-05T02:05:03.674Z,5.80
2022-12-05T02:08:10.244Z,6.10
2022-12-05T02:11:15.701Z,6.28
2022-12-05T02:14:31.506Z,5.60
2022-12-05T02:17:41.469Z,5.68
2022-12-05T02:20:53.356Z,5.88
2022-12-05T02:24:11.823Z,5.68
2022-12-05T02:27:22.396Z,5.32
2022-12-05T02:30:30.502Z,6.20
2022-12-05T02:36:43.930Z,5.20
2022-12-05T02:39:50.534Z,5.85
2022-12-05T02:42:59.704Z,4.97
2022-12-05T02:46:12.419Z,6.53
2022-12-05T02:49:20.196Z,6.15
2022-12-05T02:52:26.376Z,5.88
2022-12-05T02:55:34.056Z,6.18
2022-12-05T02:58:42.539Z,5.82
2022-12-05T03:01:50.652Z,6.25
2022-12-05T03:04:56.650Z,6.45
2022-12-05T03:08:04.000Z,5.70
2022-12-05T03:11:10.046Z,5.97
2022-12-05T03:14:18.179Z,5.03
2022-12-05T03:20:32.540Z,5.63
2022-12-05T03:23:40.438Z,6.43
2022-12-05T03:26:49.560Z,5.18
2022-12-05T03:29:58.292Z,6.38
2022-12-05T03:33:06.402Z,5.85
2022-12-05T03:36:16.718Z,6.38
2022-12-05T03:39:25.045Z,6.35
2022-12-05T03:42:32.424Z,6.05
2022-12-05T03:45:40.469Z,5.10
2022-12-05T03:51:56.904Z,5.65
2022-12-05T03:55:04.639Z,6.95
2022-12-05T03:58:11.860Z,6.55
2022-12-05T04:01:19.638Z,5.95
2022-12-05T04:07:35.543Z,5.93
2022-12-05T04:10:51.647Z,5.43
2022-12-05T04:13:58.234Z,5.63
2022-12-05T04:17:09.534Z,6.32
2022-12-05T04:20:29.104Z,5.50
2022-12-05T04:23:37.530Z,7.03
2022-12-05T04:26:44.511Z,5.90
2022-12-05T04:29:54.120Z,5.72
2022-12-05T04:33:03.534Z,6.18
2022-12-05T04:36:12.934Z,5.97
2022-12-05T04:39:23.113Z,5.97
2022-12-05T04:42:30.256Z,6.15
2022-12-05T04:45:35.691Z,5.43
2022-12-05T04:48:42.673Z,5.20
2022-12-05T04:51:48.603Z,6.32
2022-12-05T04:54:59.448Z,6.07
2022-12-05T04:58:08.877Z,5.50
2022-12-05T05:01:17.398Z,6.28
2022-12-05T05:04:25.207Z,5.70
2022-12-05T05:10:40.963Z,6.47
2022-12-05T05:13:46.447Z,5.30
2022-12-05T05:16:51.827Z,6.25
2022-12-05T05:20:19.981Z,5.68
2022-12-05T05:23:25.451Z,5.72
2022-12-05T05:26:34.921Z,5.70
2022-12-05T05:29:40.137Z,5.90
2022-12-05T05:32:45.372Z,4.80
2022-12-05T05:35:50.699Z,6.03
2022-12-05T05:38:56.759Z,5.65
2022-12-05T05:42:04.814Z,5.78
2022-12-05T05:48:15.313Z,4.93
2022-12-05T05:51:21.442Z,5.97
2022-12-05T05:54:26.539Z,5.97
2022-12-05T05:57:34.613Z,6.45
2022-12-05T06:00:39.719Z,5.63
2022-12-05T06:03:45.759Z,6.25
2022-12-05T06:06:51.232Z,5.75
2022-12-05T06:09:57.311Z,5.53
2022-12-05T06:13:06.016Z,6.00
2022-12-05T06:16:12.365Z,5.72
2022-12-05T06:19:17.761Z,5.75
2022-12-05T06:22:22.934Z,5.25
2022-12-05T06:25:28.138Z,5.63
2022-12-05T06:28:38.042Z,6.10
2022-12-05T06:31:44.954Z,5.80
2022-12-05T06:34:50.350Z,6.03
2022-12-05T06:37:55.676Z,6.35
2022-12-05T06:41:00.770Z,5.63
2022-12-05T06:44:08.658Z,5.78
2022-12-05T06:50:19.015Z,4.75
2022-12-05T06:53:24.425Z,5.30
2022-12-05T06:56:29.560Z,6.22
2022-12-05T06:59:37.555Z,5.05
2022-12-05T07:02:42.323Z,5.65
2022-12-05T07:05:47.881Z,5.35
2022-12-05T07:08:53.300Z,5.65
2022-12-05T07:11:58.743Z,6.53
2022-12-05T07:15:06.947Z,5.63
2022-12-05T07:21:18.999Z,5.07
2022-12-05T07:24:24.174Z,4.93
2022-12-05T07:27:29.520Z,5.40
2022-12-05T07:30:37.357Z,5.40
2022-12-05T07:33:43.229Z,5.53
2022-12-05T07:36:48.534Z,6.10
2022-12-05T07:39:55.028Z,5.88
2022-12-05T07:43:00.732Z,4.93
2022-12-05T07:46:11.733Z,5.13
2022-12-05T07:49:18.209Z,5.30
2022-12-05T07:52:24.078Z,5.20
2022-12-05T07:55:29.200Z,5.95
2022-12-05T07:58:35.025Z,5.45
2022-12-05T08:01:42.941Z,5.60
2022-12-05T08:04:48.498Z,5.63
2022-12-05T08:07:53.615Z,5.50
2022-12-05T08:10:59.207Z,5.13
2022-12-05T08:14:04.778Z,5.47
2022-12-05T08:17:13.288Z,5.68
2022-12-05T08:20:18.554Z,5.68
2022-12-05T08:23:23.952Z,5.40
2022-12-05T08:26:29.990Z,5.13
2022-12-05T08:29:36.165Z,5.68
2022-12-05T08:32:43.817Z,7.20
2022-12-05T08:35:49.351Z,5.00
2022-12-05T08:38:58.745Z,6.30
2022-12-05T08:42:04.033Z,5.38
2022-12-05T08:45:10.045Z,6.03
2022-12-05T08:48:17.887Z,6.13
2022-12-05T08:51:23.099Z,5.40
2022-12-05T08:54:28.241Z,5.30
2022-12-05T08:57:33.675Z,5.80
2022-12-05T09:00:38.944Z,6.10
2022-12-05T09:03:48.194Z,5.70
2022-12-05T09:06:53.757Z,5.10
2022-12-05T09:09:58.963Z,5.32
2022-12-05T09:13:04.640Z,6.00
2022-12-05T09:16:10.549Z,5.93
2022-12-05T09:19:21.098Z,5.57
2022-12-05T09:22:26.370Z,5.53
2022-12-05T09:25:32.001Z,6.20
2022-12-05T09:28:37.836Z,5.60
2022-12-05T09:31:43.593Z,6.00
2022-12-05T09:34:51.657Z,4.85
2022-12-05T09:41:09.087Z,6.40
2022-12-05T09:44:17.211Z,6.85
2022-12-05T09:50:31.582Z,4.70
2022-12-05T09:53:37.511Z,5.78
2022-12-05T09:56:44.633Z,5.47
2022-12-05T09:59:50.038Z,5.53
2022-12-05T10:03:01.506Z,5.93
2022-12-05T10:06:16.749Z,5.70
2022-12-05T10:09:29.268Z,5.35
2022-12-05T10:12:49.454Z,5.70
2022-12-05T10:15:57.571Z,5.53
2022-12-05T10:19:06.492Z,5.00
2022-12-05T10:22:20.465Z,5.55
2022-12-05T10:25:28.461Z,5.63
2022-12-05T10:28:36.967Z,5.78
2022-12-05T10:31:43.928Z,5.88
2022-12-05T10:34:49.478Z,4.65
2022-12-05T10:37:58.823Z,4.95
2022-12-05T10:41:08.096Z,5.65
2022-12-05T10:44:13.602Z,5.63
2022-12-05T10:47:19.386Z,5.22
2022-12-05T10:50:30.948Z,5.80
2022-12-05T10:53:41.406Z,6.22
2022-12-05T10:56:47.428Z,5.32
2022-12-05T10:59:52.815Z,5.07
2022-12-05T11:02:58.984Z,5.07
2022-12-05T11:06:05.350Z,9.40
2022-12-05T11:09:21.690Z,5.50
2022-12-05T11:12:27.697Z,5.15
2022-12-05T11:15:33.922Z,5.18
2022-12-05T11:18:41.954Z,5.88
2022-12-05T11:21:47.314Z,5.85
2022-12-05T11:24:55.512Z,5.90
2022-12-05T11:31:09.608Z,5.85
2022-12-05T11:34:18.191Z,5.55
2022-12-05T11:37:26.077Z,5.30
2022-12-05T11:40:38.863Z,5.15
2022-12-05T11:43:59.415Z,4.22
2022-12-05T11:47:10.776Z,4.20
2022-12-05T11:50:31.745Z,4.68
2022-12-05T11:53:49.003Z,4.63
2022-12-05T11:56:57.902Z,4.55
2022-12-05T12:00:11.959Z,4.50
2022-12-05T12:03:33.118Z,4.65
2022-12-05T12:06:46.963Z,4.55
2022-12-05T12:09:57.163Z,4.38
2022-12-05T12:13:12.552Z,4.25
2022-12-05T12:16:21.151Z,4.65
2022-12-05T12:19:38.722Z,4.18
2022-12-05T12:22:56.006Z,4.22
2022-12-05T12:26:08.828Z,4.60
2022-12-05T12:29:23.809Z,4.60
2022-12-05T12:32:32.870Z,4.78
2022-12-05T12:35:42.513Z,4.97
2022-12-05T12:38:55.995Z,5.18
2022-12-05T12:42:07.210Z,4.70
2022-12-05T12:45:27.616Z,4.50
2022-12-05T12:48:43.001Z,4.75
2022-12-05T12:51:55.193Z,5.13
2022-12-05T12:55:06.675Z,5.45
2022-12-05T12:58:17.336Z,4.68
2022-12-05T13:01:28.758Z,4.50
2022-12-05T13:04:40.836Z,5.30
2022-12-05T13:07:48.464Z,5.28
2022-12-05T13:10:54.625Z,6.15
2022-12-05T13:14:01.072Z,5.13
2022-12-05T13:17:08.525Z,4.65
2022-12-05T13:20:20.897Z,5.30
2022-12-05T13:23:27.124Z,6.20
2022-12-05T13:26:33.106Z,5.85
2022-12-05T13:29:39.583Z,5.55
2022-12-05T13:32:45.285Z,5.38
2022-12-05T13:36:05.474Z,4.90
2022-12-05T13:39:32.800Z,5.53
2022-12-05T13:42:38.185Z,5.57
2022-12-05T13:45:44.271Z,5.55
2022-12-05T13:48:51.174Z,5.50
2022-12-05T13:52:08.075Z,5.55
2022-12-05T13:55:20.747Z,6.38
2022-12-05T13:58:41.231Z,5.55
2022-12-05T14:01:55.802Z,4.82
2022-12-05T14:05:01.491Z,5.38
2022-12-05T14:08:23.403Z,4.85
2022-12-05T14:11:31.695Z,4.85
2022-12-05T14:14:54.492Z,5.32
2022-12-05T14:18:01.044Z,4.53
2022-12-05T14:21:09.803Z,4.65
2022-12-05T14:24:20.230Z,4.72
2022-12-05T14:27:36.003Z,4.65
2022-12-05T14:30:48.544Z,5.32
2022-12-05T14:34:07.548Z,5.07
2022-12-05T14:37:27.433Z,5.28
2022-12-05T14:40:34.614Z,4.13
2022-12-05T14:43:42.788Z,4.20
2022-12-05T14:46:48.618Z,4.25
2022-12-05T14:50:02.473Z,4.05
2022-12-05T14:53:23.639Z,4.78
2022-12-05T14:56:30.689Z,4.72
2022-12-05T14:59:43.457Z,4.43
2022-12-05T15:02:51.146Z,4.40
2022-12-05T15:06:03.145Z,4.88
2022-12-05T15:09:35.970Z,4.93
2022-12-05T15:12:42.600Z,4.70
2022-12-05T15:15:55.541Z,4.28
2022-12-05T15:19:03.537Z,5.13
2022-12-05T15:22:10.311Z,4.93
2022-12-05T15:25:33.707Z,4.70
2022-12-05T15:28:39.164Z,4.72
2022-12-05T15:31:50.554Z,4.03
2022-12-05T15:34:58.417Z,4.50
2022-12-05T15:41:19.420Z,4.32
2022-12-05T15:44:28.176Z,5.10
2022-12-05T15:47:38.167Z,4.72
2022-12-05T15:50:44.542Z,4.93
2022-12-05T15:53:52.347Z,4.80
2022-12-05T15:57:00.516Z,4.50
2022-12-05T16:03:22.928Z,4.75
2022-12-05T16:06:29.841Z,4.32
2022-12-05T16:09:36.285Z,4.03
2022-12-05T16:12:43.032Z,4.07
2022-12-05T16:15:52.783Z,4.65
2022-12-05T16:19:03.091Z,4.78
2022-12-05T16:22:10.977Z,4.50
2022-12-05T16:25:17.406Z,4.38
2022-12-05T16:28:23.708Z,4.03
2022-12-05T16:31:29.721Z,4.28
2022-12-05T16:34:38.288Z,3.60
2022-12-05T16:37:43.704Z,4.32
2022-12-05T16:40:59.824Z,4.70
2022-12-05T16:44:13.062Z,4.45
2022-12-05T16:47:26.016Z,4.68
2022-12-05T16:50:37.934Z,3.90
2022-12-05T16:53:46.157Z,3.95
2022-12-05T16:59:56.297Z,4.60
2022-12-05T17:03:32.333Z,5.03
2022-12-05T17:06:30.259Z,4.95
2022-12-05T17:09:35.882Z,5.20
2022-12-05T17:12:47.413Z,5.07
2022-12-05T17:15:53.090Z,4.38
2022-12-05T17:18:58.430Z,5.57
2022-12-05T17:22:07.991Z,4.80
2022-12-05T17:25:20.392Z,4.68
2022-12-05T17:28:26.276Z,4.55
2022-12-05T17:31:32.041Z,4.63
2022-12-05T17:34:37.648Z,4.25
2022-12-05T17:37:46.142Z,4.78
2022-12-05T17:40:51.468Z,4.60
2022-12-05T17:43:56.903Z,4.60
2022-12-05T17:47:07.675Z,4.45
2022-12-05T17:50:16.327Z,5.25
2022-12-05T17:53:24.588Z,4.38
2022-12-05T17:56:30.116Z,5.05
2022-12-05T17:59:35.672Z,4.88
2022-12-05T18:02:41.204Z,3.90
2022-12-05T18:05:47.304Z,4.75
2022-12-05T18:08:55.570Z,5.15
2022-12-05T18:12:00.753Z,5.03
2022-12-05T18:15:06.167Z,4.28
2022-12-05T18:18:12.988Z,4.80
2022-12-05T18:21:18.284Z,4.15
2022-12-05T18:24:26.509Z,4.80
2022-12-05T18:27:31.792Z,3.80
2022-12-05T18:30:37.397Z,4.30
2022-12-05T18:33:42.796Z,4.55
2022-12-05T18:36:47.977Z,4.20
2022-12-05T18:39:56.636Z,3.92
2022-12-05T18:43:02.027Z,4.25
2022-12-05T18:46:08.114Z,4.22
2022-12-05T18:49:15.026Z,4.07
2022-12-05T18:52:22.930Z,4.47
2022-12-05T18:55:57.802Z,4.57
2022-12-05T19:02:02.257Z,4.25
2022-12-05T19:05:07.880Z,4.25
2022-12-05T19:08:13.098Z,4.35
2022-12-05T19:11:22.355Z,4.28
2022-12-05T19:14:29.729Z,4.10
2022-12-05T19:17:34.981Z,4.20
2022-12-05T19:20:40.243Z,3.70
2022-12-05T19:23:45.800Z,4.05
2022-12-05T19:26:54.412Z,4.25
2022-12-05T19:33:05.086Z,4.28
2022-12-05T19:36:12.953Z,5.13
2022-12-05T19:39:19.726Z,4.18
2022-12-05T19:42:29.555Z,4.53
2022-12-05T19:45:34.807Z,4.57
2022-12-05T19:48:40.386Z,4.32
2022-12-05T19:51:46.482Z,5.13
2022-12-05T19:54:51.971Z,4.10
2022-12-05T19:57:59.725Z,4.07
2022-12-05T20:01:10.924Z,4.88
2022-12-05T20:04:18.482Z,4.93
2022-12-05T20:07:23.727Z,4.55
2022-12-05T20:10:29.004Z,4.55
2022-12-05T20:13:46.612Z,4.35
2022-12-05T20:16:52.761Z,3.72
2022-12-05T20:19:59.051Z,4.70
2022-12-05T20:23:04.796Z,4.72
2022-12-05T20:26:11.026Z,4.38
2022-12-05T20:29:19.012Z,4.53
2022-12-05T20:35:29.671Z,3.88
2022-12-05T20:38:35.197Z,4.25
2022-12-05T20:41:40.510Z,5.13
2022-12-05T20:44:48.514Z,4.03
2022-12-05T20:47:54.583Z,4.80
2022-12-05T20:51:06.500Z,5.00
2022-12-05T20:54:13.116Z,4.13
2022-12-05T20:57:18.471Z,4.05
2022-12-05T21:00:26.589Z,4.07
2022-12-05T21:03:31.834Z,3.78
2022-12-05T21:06:38.534Z,4.35
2022-12-05T21:09:44.124Z,4.20
2022-12-05T21:12:50.214Z,4.50
2022-12-05T21:15:58.352Z,4.32
2022-12-05T21:19:03.847Z,4.40
2022-12-05T21:22:09.212Z,4.22
2022-12-05T21:25:14.779Z,3.72
2022-12-05T21:28:20.083Z,4.57
2022-12-05T21:31:29.133Z,4.60
2022-12-05T21:34:34.779Z,4.60
2022-12-05T21:37:40.423Z,4.22
2022-12-05T21:40:46.000Z,4.15
2022-12-05T21:43:54.389Z,4.10
2022-12-05T21:47:04.329Z,4.00
2022-12-05T21:53:14.828Z,3.47
2022-12-05T21:56:23.124Z,4.93
2022-12-05T21:59:32.729Z,3.50
2022-12-05T22:02:40.496Z,4.50
2022-12-05T22:05:46.160Z,3.83
2022-12-05T22:08:51.522Z,4.47
2022-12-05T22:11:57.250Z,4.32
2022-12-05T22:15:02.585Z,4.50
2022-12-05T22:18:12.545Z,3.97
2022-12-05T22:21:18.907Z,4.25
2022-12-05T22:24:24.056Z,3.83
2022-12-05T22:27:29.563Z,4.03
2022-12-05T22:30:53.400Z,3.65
2022-12-05T22:34:01.463Z,4.00
2022-12-05T22:40:12.774Z,4.10
2022-12-05T22:43:18.768Z,3.83
2022-12-05T22:46:23.888Z,3.72
2022-12-05T22:49:34.864Z,3.83
2022-12-05T22:52:41.045Z,3.75
2022-12-05T22:55:46.322Z,4.00
2022-12-05T22:58:51.872Z,4.15
2022-12-05T23:01:57.374Z,3.80
2022-12-05T23:05:05.510Z,3.90
2022-12-05T23:11:16.385Z,3.67
2022-12-05T23:14:21.920Z,4.45
2022-12-05T23:17:27.258Z,4.00
2022-12-05T23:20:35.911Z,3.38
2022-12-05T23:23:41.785Z,3.72
2022-12-05T23:26:48.062Z,3.85
2022-12-05T23:29:53.746Z,4.03
2022-12-05T23:32:59.266Z,4.20
2022-12-05T23:36:08.323Z,4.18
2022-12-05T23:39:13.989Z,3.70
2022-12-05T23:42:19.246Z,3.90
2022-12-05T23:45:25.325Z,4.07
2022-12-05T23:48:30.828Z,3.78
2022-12-05T23:51:40.596Z,3.58
2022-12-05T23:54:46.135Z,3.55
2022-12-05T23:57:51.508Z,3.78
